sensor_id;sensor_type;location;lat;lon;timestamp;P1;durP1;ratioP1;P2;durP2;ratioP2
73902;SDS011;62238;48.722;9.270;2022-09-01T00:00:31;7.43;;;5.00;;
73902;SDS011;62238;48.722;9.270;2022-09-01T00:02:56;8.27;;;5.10;;
73902;SDS011;62238;48.722;9.270;2022-09-01T00:05:22;7.87;;;5.17;;
73902;SDS011;62238;48.722;9.270;2022-09-01T00:07:47;9.73;;;5.57;;
73902;SDS011;62238;48.722;9.270;2022-09-01T00:10:14;7.67;;;5.23;;
73902;SDS011;62238;48.722;9.270;2022-09-01T00:12:40;9.57;;;4.97;;
73902;SDS011;62238;48.722;9.270;2022-09-01T00:15:06;7.93;;;4.97;;
73902;SDS011;62238;48.722;9.270;2022-09-01T00:17:33;7.47;;;4.77;;
73902;SDS011;62238;48.722;9.270;2022-09-01T00:19:58;7.63;;;5.00;;
73902;SDS011;62238;48.722;9.270;2022-09-01T00:22:24;7.00;;;5.03;;
73902;SDS011;62238;48.722;9.270;2022-09-01T00:24:50;8.68;;;5.30;;
73902;SDS011;62238;48.722;9.270;2022-09-01T00:27:15;7.23;;;5.00;;
73902;SDS011;62238;48.722;9.270;2022-09-01T00:29:41;8.15;;;5.70;;
73902;SDS011;62238;48.722;9.270;2022-09-01T00:32:06;7.40;;;5.17;;
73902;SDS011;62238;48.722;9.270;2022-09-01T00:34:32;7.27;;;5.40;;
73902;SDS011;62238;48.722;9.270;2022-09-01T00:36:57;8.43;;;4.90;;
73902;SDS011;62238;48.722;9.270;2022-09-01T00:39:22;6.60;;;4.67;;
73902;SDS011;62238;48.722;9.270;2022-09-01T00:41:48;7.25;;;4.43;;
73902;SDS011;62238;48.722;9.270;2022-09-01T00:44:16;8.23;;;5.00;;
73902;SDS011;62238;48.722;9.270;2022-09-01T00:46:46;9.38;;;5.20;;
73902;SDS011;62238;48.722;9.270;2022-09-01T00:49:21;8.00;;;5.13;;
73902;SDS011;62238;48.722;9.270;2022-09-01T00:51:52;7.97;;;5.47;;
73902;SDS011;62238;48.722;9.270;2022-09-01T00:54:21;9.68;;;5.35;;
73902;SDS011;62238;48.722;9.270;2022-09-01T00:56:47;7.17;;;5.40;;
73902;SDS011;62238;48.722;9.270;2022-09-01T00:59:15;7.03;;;4.88;;
73902;SDS011;62238;48.722;9.270;2022-09-01T01:01:41;8.32;;;4.85;;
73902;SDS011;62238;48.722;9.270;2022-09-01T01:04:07;8.27;;;4.67;;
73902;SDS011;62238;48.722;9.270;2022-09-01T01:06:39;8.57;;;5.07;;
73902;SDS011;62238;48.722;9.270;2022-09-01T01:09:13;7.18;;;4.80;;
73902;SDS011;62238;48.722;9.270;2022-09-01T01:11:42;8.55;;;5.18;;
73902;SDS011;62238;48.722;9.270;2022-09-01T01:14:11;10.33;;;5.10;;
73902;SDS011;62238;48.722;9.270;2022-09-01T01:16:40;7.82;;;5.10;;
73902;SDS011;62238;48.722;9.270;2022-09-01T01:19:33;8.32;;;4.90;;
73902;SDS011;62238;48.722;9.270;2022-09-01T01:22:20;6.43;;;4.57;;
73902;SDS011;62238;48.722;9.270;2022-09-01T01:25:06;7.20;;;4.65;;
73902;SDS011;62238;48.722;9.270;2022-09-01T01:27:32;9.70;;;4.80;;
73902;SDS011;62238;48.722;9.270;2022-09-01T01:29:59;7.35;;;4.55;;
73902;SDS011;62238;48.722;9.270;2022-09-01T01:32:26;7.45;;;4.93;;
73902;SDS011;62238;48.722;9.270;2022-09-01T01:34:52;8.43;;;4.82;;
73902;SDS011;62238;48.722;9.270;2022-09-01T01:37:18;7.27;;;4.80;;
73902;SDS011;62238;48.722;9.270;2022-09-01T01:39:47;7.38;;;4.80;;
73902;SDS011;62238;48.722;9.270;2022-09-01T01:42:13;6.63;;;4.67;;
73902;SDS011;62238;48.722;9.270;2022-09-01T01:44:38;6.87;;;4.53;;
73902;SDS011;62238;48.722;9.270;2022-09-01T01:47:05;6.68;;;4.95;;
73902;SDS011;62238;48.722;9.270;2022-09-01T01:49:33;6.30;;;4.45;;
73902;SDS011;62238;48.722;9.270;2022-09-01T01:52:00;8.20;;;5.13;;
73902;SDS011;62238;48.722;9.270;2022-09-01T01:54:26;6.50;;;4.37;;
73902;SDS011;62238;48.722;9.270;2022-09-01T01:56:56;7.78;;;5.03;;
73902;SDS011;62238;48.722;9.270;2022-09-01T01:59:22;8.45;;;5.18;;
73902;SDS011;62238;48.722;9.270;2022-09-01T02:01:49;8.77;;;4.80;;
73902;SDS011;62238;48.722;9.270;2022-09-01T02:04:15;8.70;;;4.85;;
73902;SDS011;62238;48.722;9.270;2022-09-01T02:06:41;7.85;;;4.95;;
73902;SDS011;62238;48.722;9.270;2022-09-01T02:09:10;7.68;;;4.88;;
73902;SDS011;62238;48.722;9.270;2022-09-01T02:11:36;9.45;;;5.82;;
73902;SDS011;62238;48.722;9.270;2022-09-01T02:14:02;6.13;;;4.53;;
73902;SDS011;62238;48.722;9.270;2022-09-01T02:16:28;7.68;;;5.25;;
73902;SDS011;62238;48.722;9.270;2022-09-01T02:18:55;10.17;;;5.20;;
73902;SDS011;62238;48.722;9.270;2022-09-01T02:21:22;7.47;;;5.00;;
73902;SDS011;62238;48.722;9.270;2022-09-01T02:23:49;7.73;;;4.80;;
73902;SDS011;62238;48.722;9.270;2022-09-01T02:26:24;7.20;;;4.88;;
73902;SDS011;62238;48.722;9.270;2022-09-01T02:28:56;8.68;;;5.32;;
73902;SDS011;62238;48.722;9.270;2022-09-01T02:31:26;7.95;;;5.07;;
73902;SDS011;62238;48.722;9.270;2022-09-01T02:33:51;8.38;;;5.68;;
73902;SDS011;62238;48.722;9.270;2022-09-01T02:36:18;7.50;;;5.40;;
73902;SDS011;62238;48.722;9.270;2022-09-01T02:38:45;7.45;;;5.13;;
73902;SDS011;62238;48.722;9.270;2022-09-01T02:41:13;7.70;;;5.50;;
73902;SDS011;62238;48.722;9.270;2022-09-01T02:43:39;7.82;;;5.40;;
73902;SDS011;62238;48.722;9.270;2022-09-01T02:46:07;10.00;;;5.68;;
73902;SDS011;62238;48.722;9.270;2022-09-01T02:48:34;8.00;;;5.50;;
73902;SDS011;62238;48.722;9.270;2022-09-01T02:51:04;7.55;;;5.60;;
73902;SDS011;62238;48.722;9.270;2022-09-01T02:53:35;8.23;;;5.50;;
73902;SDS011;62238;48.722;9.270;2022-09-01T02:56:03;8.17;;;5.47;;
73902;SDS011;62238;48.722;9.270;2022-09-01T02:58:34;10.90;;;5.70;;
73902;SDS011;62238;48.722;9.270;2022-09-01T03:01:09;8.48;;;5.40;;
73902;SDS011;62238;48.722;9.270;2022-09-01T03:03:37;8.98;;;5.60;;
73902;SDS011;62238;48.722;9.270;2022-09-01T03:06:02;9.10;;;5.23;;
73902;SDS011;62238;48.722;9.270;2022-09-01T03:08:29;8.00;;;5.32;;
73902;SDS011;62238;48.722;9.270;2022-09-01T03:10:58;8.43;;;5.38;;
73902;SDS011;62238;48.722;9.270;2022-09-01T03:13:25;9.17;;;5.33;;
73902;SDS011;62238;48.722;9.270;2022-09-01T03:15:51;9.77;;;5.95;;
73902;SDS011;62238;48.722;9.270;2022-09-01T03:18:16;8.60;;;5.97;;
73902;SDS011;62238;48.722;9.270;2022-09-01T03:20:45;8.57;;;5.93;;
73902;SDS011;62238;48.722;9.270;2022-09-01T03:23:12;7.97;;;5.75;;
73902;SDS011;62238;48.722;9.270;2022-09-01T03:25:39;8.65;;;5.90;;
73902;SDS011;62238;48.722;9.270;2022-09-01T03:28:05;10.07;;;6.13;;
73902;SDS011;62238;48.722;9.270;2022-09-01T03:30:31;8.00;;;5.67;;
73902;SDS011;62238;48.722;9.270;2022-09-01T03:33:00;9.07;;;5.88;;
73902;SDS011;62238;48.722;9.270;2022-09-01T03:35:27;9.23;;;6.10;;
73902;SDS011;62238;48.722;9.270;2022-09-01T03:37:56;9.73;;;5.90;;
73902;SDS011;62238;48.722;9.270;2022-09-01T03:40:24;8.45;;;5.80;;
73902;SDS011;62238;48.722;9.270;2022-09-01T03:42:56;8.30;;;5.40;;
73902;SDS011;62238;48.722;9.270;2022-09-01T03:45:25;8.98;;;5.32;;
73902;SDS011;62238;48.722;9.270;2022-09-01T03:47:51;9.90;;;5.72;;
73902;SDS011;62238;48.722;9.270;2022-09-01T03:50:19;9.30;;;5.90;;
73902;SDS011;62238;48.722;9.270;2022-09-01T03:52:50;9.77;;;6.10;;
73902;SDS011;62238;48.722;9.270;2022-09-01T03:55:23;8.45;;;5.90;;
73902;SDS011;62238;48.722;9.270;2022-09-01T03:57:53;8.52;;;6.10;;
73902;SDS011;62238;48.722;9.270;2022-09-01T04:00:20;9.13;;;5.88;;
73902;SDS011;62238;48.722;9.270;2022-09-01T04:02:50;8.80;;;5.83;;
73902;SDS011;62238;48.722;9.270;2022-09-01T04:05:20;7.95;;;5.65;;
73902;SDS011;62238;48.722;9.270;2022-09-01T04:07:46;8.35;;;5.28;;
73902;SDS011;62238;48.722;9.270;2022-09-01T04:10:13;9.68;;;5.25;;
73902;SDS011;62238;48.722;9.270;2022-09-01T04:12:39;10.70;;;5.97;;
73902;SDS011;62238;48.722;9.270;2022-09-01T04:15:04;9.43;;;5.85;;
73902;SDS011;62238;48.722;9.270;2022-09-01T04:17:32;8.37;;;6.07;;
73902;SDS011;62238;48.722;9.270;2022-09-01T04:20:16;9.10;;;5.95;;
73902;SDS011;62238;48.722;9.270;2022-09-01T04:22:44;9.45;;;5.95;;
73902;SDS011;62238;48.722;9.270;2022-09-01T04:25:11;8.65;;;6.20;;
73902;SDS011;62238;48.722;9.270;2022-09-01T04:27:38;9.05;;;6.13;;
73902;SDS011;62238;48.722;9.270;2022-09-01T04:30:04;7.90;;;5.80;;
73902;SDS011;62238;48.722;9.270;2022-09-01T04:32:34;8.60;;;6.03;;
73902;SDS011;62238;48.722;9.270;2022-09-01T04:35:04;9.90;;;5.97;;
73902;SDS011;62238;48.722;9.270;2022-09-01T04:37:31;9.77;;;5.63;;
73902;SDS011;62238;48.722;9.270;2022-09-01T04:40:00;8.15;;;5.43;;
73902;SDS011;62238;48.722;9.270;2022-09-01T04:42:27;9.03;;;5.47;;
73902;SDS011;62238;48.722;9.270;2022-09-01T04:44:56;8.20;;;5.18;;
73902;SDS011;62238;48.722;9.270;2022-09-01T04:47:24;7.35;;;4.97;;
73902;SDS011;62238;48.722;9.270;2022-09-01T04:49:56;10.00;;;5.35;;
73902;SDS011;62238;48.722;9.270;2022-09-01T04:52:24;8.05;;;4.63;;
73902;SDS011;62238;48.722;9.270;2022-09-01T04:54:50;7.80;;;4.73;;
73902;SDS011;62238;48.722;9.270;2022-09-01T04:57:15;6.73;;;4.47;;
73902;SDS011;62238;48.722;9.270;2022-09-01T04:59:40;7.55;;;4.53;;
73902;SDS011;62238;48.722;9.270;2022-09-01T05:02:07;7.10;;;4.75;;
73902;SDS011;62238;48.722;9.270;2022-09-01T05:04:34;7.95;;;5.18;;
73902;SDS011;62238;48.722;9.270;2022-09-01T05:07:02;9.03;;;4.37;;
73902;SDS011;62238;48.722;9.270;2022-09-01T05:09:30;6.80;;;4.57;;
73902;SDS011;62238;48.722;9.270;2022-09-01T05:11:57;7.32;;;4.78;;
73902;SDS011;62238;48.722;9.270;2022-09-01T05:14:34;7.68;;;4.78;;
73902;SDS011;62238;48.722;9.270;2022-09-01T05:17:06;6.82;;;4.55;;
73902;SDS011;62238;48.722;9.270;2022-09-01T05:19:34;8.17;;;5.23;;
73902;SDS011;62238;48.722;9.270;2022-09-01T05:22:11;7.05;;;5.05;;
73902;SDS011;62238;48.722;9.270;2022-09-01T05:24:37;7.97;;;5.38;;
73902;SDS011;62238;48.722;9.270;2022-09-01T05:27:05;7.47;;;5.33;;
73902;SDS011;62238;48.722;9.270;2022-09-01T05:29:31;8.07;;;5.20;;
73902;SDS011;62238;48.722;9.270;2022-09-01T05:31:56;6.73;;;4.60;;
73902;SDS011;62238;48.722;9.270;2022-09-01T05:34:23;7.53;;;4.72;;
73902;SDS011;62238;48.722;9.270;2022-09-01T05:36:55;8.80;;;5.53;;
73902;SDS011;62238;48.722;9.270;2022-09-01T05:39:22;7.80;;;5.13;;
73902;SDS011;62238;48.722;9.270;2022-09-01T05:41:48;7.15;;;4.57;;
73902;SDS011;62238;48.722;9.270;2022-09-01T05:44:14;7.83;;;5.27;;
73902;SDS011;62238;48.722;9.270;2022-09-01T05:46:40;8.77;;;5.30;;
73902;SDS011;62238;48.722;9.270;2022-09-01T05:49:08;8.23;;;5.28;;
73902;SDS011;62238;48.722;9.270;2022-09-01T05:51:38;7.90;;;5.03;;
73902;SDS011;62238;48.722;9.270;2022-09-01T05:54:05;9.10;;;5.10;;
73902;SDS011;62238;48.722;9.270;2022-09-01T05:56:33;9.48;;;5.38;;
73902;SDS011;62238;48.722;9.270;2022-09-01T05:59:00;8.48;;;5.63;;
73902;SDS011;62238;48.722;9.270;2022-09-01T06:01:27;10.38;;;5.60;;
73902;SDS011;62238;48.722;9.270;2022-09-01T06:03:57;9.80;;;6.25;;
73902;SDS011;62238;48.722;9.270;2022-09-01T06:06:24;10.63;;;6.73;;
73902;SDS011;62238;48.722;9.270;2022-09-01T06:08:54;10.10;;;6.45;;
73902;SDS011;62238;48.722;9.270;2022-09-01T06:11:24;9.88;;;6.70;;
73902;SDS011;62238;48.722;9.270;2022-09-01T06:13:50;9.38;;;6.20;;
73902;SDS011;62238;48.722;9.270;2022-09-01T06:16:16;9.77;;;6.70;;
73902;SDS011;62238;48.722;9.270;2022-09-01T06:18:44;9.17;;;6.27;;
73902;SDS011;62238;48.722;9.270;2022-09-01T06:21:10;9.48;;;6.40;;
73902;SDS011;62238;48.722;9.270;2022-09-01T06:23:39;9.73;;;5.97;;
73902;SDS011;62238;48.722;9.270;2022-09-01T06:26:06;9.98;;;6.70;;
73902;SDS011;62238;48.722;9.270;2022-09-01T06:28:41;11.17;;;6.50;;
73902;SDS011;62238;48.722;9.270;2022-09-01T06:31:06;11.02;;;6.10;;
73902;SDS011;62238;48.722;9.270;2022-09-01T06:33:33;10.48;;;5.95;;
73902;SDS011;62238;48.722;9.270;2022-09-01T06:36:00;12.18;;;6.80;;
73902;SDS011;62238;48.722;9.270;2022-09-01T06:38:28;10.70;;;6.23;;
73902;SDS011;62238;48.722;9.270;2022-09-01T06:41:00;9.40;;;5.97;;
73902;SDS011;62238;48.722;9.270;2022-09-01T06:43:28;9.80;;;6.68;;
73902;SDS011;62238;48.722;9.270;2022-09-01T06:45:55;9.65;;;6.35;;
73902;SDS011;62238;48.722;9.270;2022-09-01T06:48:20;10.23;;;6.13;;
73902;SDS011;62238;48.722;9.270;2022-09-01T06:50:47;10.52;;;6.25;;
73902;SDS011;62238;48.722;9.270;2022-09-01T06:55:42;9.80;;;5.75;;
73902;SDS011;62238;48.722;9.270;2022-09-01T06:58:09;10.07;;;5.50;;
73902;SDS011;62238;48.722;9.270;2022-09-01T07:00:36;7.90;;;5.22;;
73902;SDS011;62238;48.722;9.270;2022-09-01T07:03:06;8.27;;;5.20;;
73902;SDS011;62238;48.722;9.270;2022-09-01T07:05:39;8.80;;;5.50;;
73902;SDS011;62238;48.722;9.270;2022-09-01T07:08:06;8.35;;;5.22;;
73902;SDS011;62238;48.722;9.270;2022-09-01T07:10:37;8.07;;;5.10;;
73902;SDS011;62238;48.722;9.270;2022-09-01T07:13:05;8.52;;;5.70;;
73902;SDS011;62238;48.722;9.270;2022-09-01T07:15:32;7.78;;;5.65;;
73902;SDS011;62238;48.722;9.270;2022-09-01T07:17:57;12.15;;;6.13;;
73902;SDS011;62238;48.722;9.270;2022-09-01T07:20:24;8.50;;;5.83;;
73902;SDS011;62238;48.722;9.270;2022-09-01T07:22:51;10.02;;;6.05;;
73902;SDS011;62238;48.722;9.270;2022-09-01T07:25:17;10.18;;;5.88;;
73902;SDS011;62238;48.722;9.270;2022-09-01T07:27:44;8.97;;;5.30;;
73902;SDS011;62238;48.722;9.270;2022-09-01T07:30:13;6.82;;;4.95;;
73902;SDS011;62238;48.722;9.270;2022-09-01T07:32:39;8.75;;;6.18;;
73902;SDS011;62238;48.722;9.270;2022-09-01T07:35:07;9.95;;;6.35;;
73902;SDS011;62238;48.722;9.270;2022-09-01T07:37:33;9.57;;;5.80;;
73902;SDS011;62238;48.722;9.270;2022-09-01T07:40:03;10.77;;;5.90;;
73902;SDS011;62238;48.722;9.270;2022-09-01T07:42:30;9.23;;;6.22;;
73902;SDS011;62238;48.722;9.270;2022-09-01T07:44:56;8.40;;;5.93;;
73902;SDS011;62238;48.722;9.270;2022-09-01T07:47:22;10.35;;;6.70;;
73902;SDS011;62238;48.722;9.270;2022-09-01T07:49:47;10.83;;;6.43;;
73902;SDS011;62238;48.722;9.270;2022-09-01T07:52:13;9.73;;;6.73;;
73902;SDS011;62238;48.722;9.270;2022-09-01T07:54:38;10.60;;;6.25;;
73902;SDS011;62238;48.722;9.270;2022-09-01T07:57:04;8.30;;;5.63;;
73902;SDS011;62238;48.722;9.270;2022-09-01T07:59:30;11.13;;;5.70;;
73902;SDS011;62238;48.722;9.270;2022-09-01T08:01:57;8.67;;;5.97;;
73902;SDS011;62238;48.722;9.270;2022-09-01T08:04:22;9.23;;;6.30;;
73902;SDS011;62238;48.722;9.270;2022-09-01T08:06:48;9.67;;;6.30;;
73902;SDS011;62238;48.722;9.270;2022-09-01T08:09:13;8.65;;;5.68;;
73902;SDS011;62238;48.722;9.270;2022-09-01T08:11:39;8.67;;;5.90;;
73902;SDS011;62238;48.722;9.270;2022-09-01T08:14:04;8.87;;;6.30;;
73902;SDS011;62238;48.722;9.270;2022-09-01T08:16:30;11.77;;;6.40;;
73902;SDS011;62238;48.722;9.270;2022-09-01T08:18:55;10.93;;;6.50;;
73902;SDS011;62238;48.722;9.270;2022-09-01T08:21:22;8.48;;;5.70;;
73902;SDS011;62238;48.722;9.270;2022-09-01T08:23:49;10.33;;;6.30;;
73902;SDS011;62238;48.722;9.270;2022-09-01T08:26:16;8.15;;;6.00;;
73902;SDS011;62238;48.722;9.270;2022-09-01T08:28:43;9.18;;;5.90;;
73902;SDS011;62238;48.722;9.270;2022-09-01T08:31:09;8.50;;;5.82;;
73902;SDS011;62238;48.722;9.270;2022-09-01T08:33:36;8.13;;;6.00;;
73902;SDS011;62238;48.722;9.270;2022-09-01T08:36:02;8.55;;;5.60;;
73902;SDS011;62238;48.722;9.270;2022-09-01T08:38:28;8.63;;;5.07;;
73902;SDS011;62238;48.722;9.270;2022-09-01T08:40:54;9.27;;;5.40;;
73902;SDS011;62238;48.722;9.270;2022-09-01T08:43:24;8.15;;;5.30;;
73902;SDS011;62238;48.722;9.270;2022-09-01T08:46:13;7.88;;;4.82;;
73902;SDS011;62238;48.722;9.270;2022-09-01T08:48:44;9.38;;;4.85;;
73902;SDS011;62238;48.722;9.270;2022-09-01T08:53:48;6.13;;;4.05;;
73902;SDS011;62238;48.722;9.270;2022-09-01T08:56:22;6.22;;;4.20;;
73902;SDS011;62238;48.722;9.270;2022-09-01T08:58:47;6.67;;;4.30;;
73902;SDS011;62238;48.722;9.270;2022-09-01T09:06:46;5.60;;;4.00;;
73902;SDS011;62238;48.722;9.270;2022-09-01T09:09:19;5.65;;;4.10;;
73902;SDS011;62238;48.722;9.270;2022-09-01T09:11:48;5.50;;;3.87;;
73902;SDS011;62238;48.722;9.270;2022-09-01T09:17:28;6.43;;;4.15;;
73902;SDS011;62238;48.722;9.270;2022-09-01T09:19:56;6.47;;;4.18;;
73902;SDS011;62238;48.722;9.270;2022-09-01T09:22:21;6.57;;;4.13;;
73902;SDS011;62238;48.722;9.270;2022-09-01T09:24:51;7.20;;;4.20;;
73902;SDS011;62238;48.722;9.270;2022-09-01T09:27:23;5.65;;;3.92;;
73902;SDS011;62238;48.722;9.270;2022-09-01T09:29:49;6.47;;;4.05;;
73902;SDS011;62238;48.722;9.270;2022-09-01T09:32:19;5.38;;;3.97;;
73902;SDS011;62238;48.722;9.270;2022-09-01T09:34:45;6.07;;;4.20;;
73902;SDS011;62238;48.722;9.270;2022-09-01T09:37:29;5.97;;;3.50;;
73902;SDS011;62238;48.722;9.270;2022-09-01T09:40:09;5.78;;;3.58;;
73902;SDS011;62238;48.722;9.270;2022-09-01T09:42:40;7.90;;;3.50;;
73902;SDS011;62238;48.722;9.270;2022-09-01T09:45:41;5.50;;;3.50;;
73902;SDS011;62238;48.722;9.270;2022-09-01T09:48:25;5.50;;;3.10;;
73902;SDS011;62238;48.722;9.270;2022-09-01T09:50:53;4.97;;;3.38;;
73902;SDS011;62238;48.722;9.270;2022-09-01T09:53:29;5.17;;;3.40;;
73902;SDS011;62238;48.722;9.270;2022-09-01T09:55:58;4.57;;;3.17;;
73902;SDS011;62238;48.722;9.270;2022-09-01T09:58:27;5.40;;;3.45;;
73902;SDS011;62238;48.722;9.270;2022-09-01T10:01:26;5.75;;;2.97;;
73902;SDS011;62238;48.722;9.270;2022-09-01T10:03:58;4.90;;;2.88;;
73902;SDS011;62238;48.722;9.270;2022-09-01T10:06:35;4.53;;;2.90;;
73902;SDS011;62238;48.722;9.270;2022-09-01T10:09:13;3.95;;;2.90;;
73902;SDS011;62238;48.722;9.270;2022-09-01T10:11:40;5.80;;;2.80;;
73902;SDS011;62238;48.722;9.270;2022-09-01T10:14:10;3.20;;;2.53;;
73902;SDS011;62238;48.722;9.270;2022-09-01T10:16:38;4.15;;;2.90;;
73902;SDS011;62238;48.722;9.270;2022-09-01T10:19:06;3.80;;;2.57;;
73902;SDS011;62238;48.722;9.270;2022-09-01T10:21:37;4.45;;;2.75;;
73902;SDS011;62238;48.722;9.270;2022-09-01T10:24:18;3.55;;;2.60;;
73902;SDS011;62238;48.722;9.270;2022-09-01T10:27:02;3.88;;;2.80;;
73902;SDS011;62238;48.722;9.270;2022-09-01T10:30:18;3.95;;;2.92;;
73902;SDS011;62238;48.722;9.270;2022-09-01T10:35:28;5.55;;;2.92;;
73902;SDS011;62238;48.722;9.270;2022-09-01T10:37:59;4.28;;;2.90;;
73902;SDS011;62238;48.722;9.270;2022-09-01T10:42:54;5.10;;;3.00;;
73902;SDS011;62238;48.722;9.270;2022-09-01T10:45:28;4.70;;;2.83;;
73902;SDS011;62238;48.722;9.270;2022-09-01T10:50:44;3.42;;;2.63;;
73902;SDS011;62238;48.722;9.270;2022-09-01T10:53:30;4.20;;;3.00;;
73902;SDS011;62238;48.722;9.270;2022-09-01T10:56:02;3.63;;;2.63;;
73902;SDS011;62238;48.722;9.270;2022-09-01T11:00:59;3.93;;;2.73;;
73902;SDS011;62238;48.722;9.270;2022-09-01T11:03:35;3.60;;;2.70;;
73902;SDS011;62238;48.722;9.270;2022-09-01T11:06:30;4.60;;;2.83;;
73902;SDS011;62238;48.722;9.270;2022-09-01T11:17:22;3.75;;;2.67;;
73902;SDS011;62238;48.722;9.270;2022-09-01T11:22:26;3.47;;;2.60;;
73902;SDS011;62238;48.722;9.270;2022-09-01T11:27:59;3.97;;;2.50;;
73902;SDS011;62238;48.722;9.270;2022-09-01T11:36:00;4.70;;;2.88;;
73902;SDS011;62238;48.722;9.270;2022-09-01T11:38:31;4.00;;;2.67;;
73902;SDS011;62238;48.722;9.270;2022-09-01T11:41:02;3.90;;;2.80;;
73902;SDS011;62238;48.722;9.270;2022-09-01T11:43:27;4.85;;;3.05;;
73902;SDS011;62238;48.722;9.270;2022-09-01T11:48:31;5.03;;;3.17;;
73902;SDS011;62238;48.722;9.270;2022-09-01T11:50:58;5.10;;;2.90;;
73902;SDS011;62238;48.722;9.270;2022-09-01T11:53:25;4.27;;;3.20;;
73902;SDS011;62238;48.722;9.270;2022-09-01T11:55:52;7.38;;;3.22;;
73902;SDS011;62238;48.722;9.270;2022-09-01T12:00:51;5.15;;;3.00;;
73902;SDS011;62238;48.722;9.270;2022-09-01T12:03:18;4.80;;;2.90;;
73902;SDS011;62238;48.722;9.270;2022-09-01T12:05:45;4.70;;;2.95;;
73902;SDS011;62238;48.722;9.270;2022-09-01T12:08:15;4.87;;;2.80;;
73902;SDS011;62238;48.722;9.270;2022-09-01T12:10:42;5.07;;;2.90;;
73902;SDS011;62238;48.722;9.270;2022-09-01T12:15:35;4.40;;;2.87;;
73902;SDS011;62238;48.722;9.270;2022-09-01T12:18:12;3.50;;;2.60;;
73902;SDS011;62238;48.722;9.270;2022-09-01T12:20:51;3.95;;;2.72;;
73902;SDS011;62238;48.722;9.270;2022-09-01T12:23:27;3.60;;;2.72;;
73902;SDS011;62238;48.722;9.270;2022-09-01T12:25:58;4.30;;;2.83;;
73902;SDS011;62238;48.722;9.270;2022-09-01T12:28:26;6.60;;;3.08;;
73902;SDS011;62238;48.722;9.270;2022-09-01T12:30:57;4.40;;;2.90;;
73902;SDS011;62238;48.722;9.270;2022-09-01T12:33:23;5.18;;;2.80;;
73902;SDS011;62238;48.722;9.270;2022-09-01T12:35:50;3.80;;;2.78;;
73902;SDS011;62238;48.722;9.270;2022-09-01T12:38:25;4.07;;;2.60;;
73902;SDS011;62238;48.722;9.270;2022-09-01T12:40:54;3.97;;;3.00;;
73902;SDS011;62238;48.722;9.270;2022-09-01T12:45:57;4.37;;;3.00;;
73902;SDS011;62238;48.722;9.270;2022-09-01T12:48:29;4.13;;;2.78;;
73902;SDS011;62238;48.722;9.270;2022-09-01T12:50:57;4.20;;;2.72;;
73902;SDS011;62238;48.722;9.270;2022-09-01T12:53:25;5.22;;;3.05;;
73902;SDS011;62238;48.722;9.270;2022-09-01T12:56:03;4.05;;;3.00;;
73902;SDS011;62238;48.722;9.270;2022-09-01T12:58:49;4.07;;;2.60;;
73902;SDS011;62238;48.722;9.270;2022-09-01T13:01:28;3.85;;;2.60;;
73902;SDS011;62238;48.722;9.270;2022-09-01T13:04:05;3.63;;;2.55;;
73902;SDS011;62238;48.722;9.270;2022-09-01T13:06:56;3.67;;;2.60;;
73902;SDS011;62238;48.722;9.270;2022-09-01T13:09:25;3.72;;;2.67;;
73902;SDS011;62238;48.722;9.270;2022-09-01T13:11:50;3.57;;;2.80;;
73902;SDS011;62238;48.722;9.270;2022-09-01T13:14:16;3.83;;;2.60;;
73902;SDS011;62238;48.722;9.270;2022-09-01T13:16:42;4.15;;;2.92;;
73902;SDS011;62238;48.722;9.270;2022-09-01T13:19:08;3.83;;;2.60;;
73902;SDS011;62238;48.722;9.270;2022-09-01T13:21:34;5.95;;;3.10;;
73902;SDS011;62238;48.722;9.270;2022-09-01T13:24:00;4.40;;;3.07;;
73902;SDS011;62238;48.722;9.270;2022-09-01T13:26:28;4.25;;;3.00;;
73902;SDS011;62238;48.722;9.270;2022-09-01T13:28:55;5.15;;;3.38;;
73902;SDS011;62238;48.722;9.270;2022-09-01T13:31:21;6.53;;;3.20;;
73902;SDS011;62238;48.722;9.270;2022-09-01T13:33:47;3.95;;;2.95;;
73902;SDS011;62238;48.722;9.270;2022-09-01T13:36:12;3.87;;;2.97;;
73902;SDS011;62238;48.722;9.270;2022-09-01T13:38:38;4.60;;;3.10;;
73902;SDS011;62238;48.722;9.270;2022-09-01T13:41:04;4.68;;;2.83;;
73902;SDS011;62238;48.722;9.270;2022-09-01T13:43:30;5.40;;;3.10;;
73902;SDS011;62238;48.722;9.270;2022-09-01T13:45:55;4.77;;;3.10;;
73902;SDS011;62238;48.722;9.270;2022-09-01T13:48:21;4.17;;;2.80;;
73902;SDS011;62238;48.722;9.270;2022-09-01T13:50:47;5.70;;;3.27;;
73902;SDS011;62238;48.722;9.270;2022-09-01T13:53:14;3.97;;;3.00;;
73902;SDS011;62238;48.722;9.270;2022-09-01T13:55:40;4.45;;;3.00;;
73902;SDS011;62238;48.722;9.270;2022-09-01T13:58:06;4.25;;;3.10;;
73902;SDS011;62238;48.722;9.270;2022-09-01T14:00:36;4.65;;;2.97;;
73902;SDS011;62238;48.722;9.270;2022-09-01T14:03:05;3.65;;;3.00;;
73902;SDS011;62238;48.722;9.270;2022-09-01T14:05:33;6.07;;;3.10;;
73902;SDS011;62238;48.722;9.270;2022-09-01T14:08:00;5.07;;;3.10;;
73902;SDS011;62238;48.722;9.270;2022-09-01T14:10:27;4.20;;;3.03;;
73902;SDS011;62238;48.722;9.270;2022-09-01T14:12:53;5.50;;;3.40;;
73902;SDS011;62238;48.722;9.270;2022-09-01T14:15:19;4.97;;;3.40;;
73902;SDS011;62238;48.722;9.270;2022-09-01T14:17:46;3.60;;;2.90;;
73902;SDS011;62238;48.722;9.270;2022-09-01T14:20:14;7.05;;;3.08;;
73902;SDS011;62238;48.722;9.270;2022-09-01T14:22:44;6.03;;;2.57;;
73902;SDS011;62238;48.722;9.270;2022-09-01T14:25:10;3.30;;;2.60;;
73902;SDS011;62238;48.722;9.270;2022-09-01T14:27:36;6.50;;;3.05;;
73902;SDS011;62238;48.722;9.270;2022-09-01T14:30:03;4.10;;;2.50;;
73902;SDS011;62238;48.722;9.270;2022-09-01T14:32:30;3.50;;;2.37;;
73902;SDS011;62238;48.722;9.270;2022-09-01T14:34:55;4.75;;;2.50;;
73902;SDS011;62238;48.722;9.270;2022-09-01T14:37:21;5.43;;;2.37;;
73902;SDS011;62238;48.722;9.270;2022-09-01T14:39:48;4.82;;;2.55;;
73902;SDS011;62238;48.722;9.270;2022-09-01T14:42:14;4.07;;;2.30;;
73902;SDS011;62238;48.722;9.270;2022-09-01T14:44:40;3.38;;;2.50;;
73902;SDS011;62238;48.722;9.270;2022-09-01T14:47:05;2.70;;;2.30;;
73902;SDS011;62238;48.722;9.270;2022-09-01T14:49:31;3.77;;;2.53;;
73902;SDS011;62238;48.722;9.270;2022-09-01T14:52:00;3.65;;;2.58;;
73902;SDS011;62238;48.722;9.270;2022-09-01T14:54:28;3.42;;;2.50;;
73902;SDS011;62238;48.722;9.270;2022-09-01T14:56:54;3.73;;;2.50;;
73902;SDS011;62238;48.722;9.270;2022-09-01T14:59:19;3.63;;;2.33;;
73902;SDS011;62238;48.722;9.270;2022-09-01T15:01:44;3.47;;;2.57;;
73902;SDS011;62238;48.722;9.270;2022-09-01T15:04:10;3.77;;;2.57;;
73902;SDS011;62238;48.722;9.270;2022-09-01T15:06:35;3.33;;;2.40;;
73902;SDS011;62238;48.722;9.270;2022-09-01T15:09:01;3.60;;;2.50;;
73902;SDS011;62238;48.722;9.270;2022-09-01T15:11:27;3.40;;;2.35;;
73902;SDS011;62238;48.722;9.270;2022-09-01T15:13:52;3.87;;;2.70;;
73902;SDS011;62238;48.722;9.270;2022-09-01T15:16:19;3.50;;;2.60;;
73902;SDS011;62238;48.722;9.270;2022-09-01T15:18:46;3.83;;;2.47;;
73902;SDS011;62238;48.722;9.270;2022-09-01T15:21:21;4.28;;;2.38;;
73902;SDS011;62238;48.722;9.270;2022-09-01T15:23:48;4.30;;;2.40;;
73902;SDS011;62238;48.722;9.270;2022-09-01T15:26:14;3.87;;;2.40;;
73902;SDS011;62238;48.722;9.270;2022-09-01T15:28:41;3.95;;;2.45;;
73902;SDS011;62238;48.722;9.270;2022-09-01T15:31:07;2.75;;;2.33;;
73902;SDS011;62238;48.722;9.270;2022-09-01T15:33:33;3.08;;;2.30;;
73902;SDS011;62238;48.722;9.270;2022-09-01T15:35:58;3.63;;;2.40;;
73902;SDS011;62238;48.722;9.270;2022-09-01T15:38:24;3.70;;;2.47;;
73902;SDS011;62238;48.722;9.270;2022-09-01T15:40:49;3.57;;;2.47;;
73902;SDS011;62238;48.722;9.270;2022-09-01T15:43:15;4.47;;;2.55;;
73902;SDS011;62238;48.722;9.270;2022-09-01T15:45:40;3.97;;;2.50;;
73902;SDS011;62238;48.722;9.270;2022-09-01T15:48:07;3.72;;;2.70;;